createdAt,value
2019-04-30T00:00:02.288Z,44.50
2019-04-30T00:02:35.846Z,47.10
2019-04-30T00:05:01.387Z,45.10
2019-04-30T00:07:29.524Z,47.60
2019-04-30T00:09:57.645Z,47.80
2019-04-30T00:12:25.735Z,46.90
2019-04-30T00:14:52.680Z,48.40
2019-04-30T00:17:21.236Z,47.80
2019-04-30T00:19:50.384Z,46.80
2019-04-30T00:22:16.736Z,48.30
2019-04-30T00:24:46.793Z,49.70
2019-04-30T00:27:12.339Z,50.50
2019-04-30T00:29:39.102Z,50.70
2019-04-30T00:32:07.872Z,50.10
2019-04-30T00:34:35.899Z,48.70
2019-04-30T00:37:07.414Z,49.30
2019-04-30T00:39:35.530Z,50.10
2019-04-30T00:42:02.512Z,50.00
2019-04-30T00:44:29.788Z,48.60
2019-04-30T00:47:00.587Z,51.20
2019-04-30T00:49:26.654Z,49.40
2019-04-30T00:51:57.007Z,49.60
2019-04-30T00:54:27.110Z,49.20
2019-04-30T00:56:51.278Z,49.90
2019-04-30T00:59:18.291Z,50.10
2019-04-30T01:04:37.318Z,49.80
2019-04-30T01:07:05.202Z,49.90
2019-04-30T01:09:33.124Z,50.10
2019-04-30T01:12:00.041Z,50.80
2019-04-30T01:14:28.310Z,50.50
2019-04-30T01:16:57.011Z,51.00
2019-04-30T01:19:30.028Z,51.00
2019-04-30T01:21:52.504Z,51.00
2019-04-30T01:24:23.439Z,51.10
2019-04-30T01:26:48.577Z,51.20
2019-04-30T01:29:16.765Z,50.30
2019-04-30T01:31:43.734Z,51.20
2019-04-30T01:34:14.047Z,50.30
2019-04-30T01:36:43.481Z,51.30
2019-04-30T01:39:09.458Z,50.90
2019-04-30T01:41:36.541Z,51.40
2019-04-30T01:44:03.712Z,50.60
2019-04-30T01:46:32.157Z,51.30
2019-04-30T01:48:59.001Z,50.50
2019-04-30T01:51:25.896Z,51.00
2019-04-30T01:53:52.756Z,51.30
2019-04-30T01:56:38.915Z,51.40
2019-04-30T01:59:09.173Z,50.50
2019-04-30T02:01:39.035Z,51.20
2019-04-30T02:04:05.754Z,50.50
2019-04-30T02:06:32.741Z,51.00
2019-04-30T02:08:59.499Z,51.50
2019-04-30T02:11:26.346Z,51.50
2019-04-30T02:13:53.200Z,52.20
2019-04-30T02:16:21.164Z,53.30
2019-04-30T02:18:49.518Z,53.70
2019-04-30T02:21:16.655Z,53.60
2019-04-30T02:23:43.698Z,53.60
2019-04-30T02:26:10.635Z,53.90
2019-04-30T02:28:39.271Z,53.70
2019-04-30T02:31:26.005Z,53.90
2019-04-30T02:33:54.692Z,54.60
2019-04-30T02:36:40.516Z,54.50
2019-04-30T02:39:10.818Z,55.30
2019-04-30T02:41:36.289Z,56.80
2019-04-30T02:44:03.042Z,57.80
2019-04-30T02:46:32.347Z,58.00
2019-04-30T02:48:59.774Z,58.40
2019-04-30T02:51:29.932Z,58.10
2019-04-30T02:54:09.775Z,58.30
2019-04-30T02:56:39.811Z,61.20
2019-04-30T02:59:05.568Z,58.10
2019-04-30T03:01:32.420Z,57.70
2019-04-30T03:03:59.908Z,57.50
2019-04-30T03:06:29.733Z,57.90
2019-04-30T03:08:55.874Z,58.00
2019-04-30T03:11:22.621Z,57.50
2019-04-30T03:13:49.759Z,55.60
2019-04-30T03:16:20.763Z,56.60
2019-04-30T03:18:51.893Z,57.00
2019-04-30T03:21:36.941Z,57.10
2019-04-30T03:24:03.877Z,57.00
2019-04-30T03:26:30.828Z,58.00
2019-04-30T03:29:00.686Z,57.70
2019-04-30T03:31:26.441Z,56.00
2019-04-30T03:33:53.186Z,56.00
2019-04-30T03:36:21.769Z,55.70
2019-04-30T03:38:50.098Z,56.40
2019-04-30T03:41:19.922Z,56.40
2019-04-30T03:43:46.005Z,57.00
2019-04-30T03:46:12.955Z,57.10
2019-04-30T03:48:39.797Z,57.10
2019-04-30T03:51:06.761Z,57.70
2019-04-30T03:53:34.206Z,56.00
2019-04-30T03:56:01.565Z,54.50
2019-04-30T03:58:29.340Z,52.40
2019-04-30T04:03:42.088Z,51.80
2019-04-30T04:11:51.844Z,50.10
2019-04-30T04:14:19.777Z,50.80
2019-04-30T04:16:46.924Z,50.90
2019-04-30T04:19:13.716Z,49.90
2019-04-30T04:21:40.589Z,50.60
2019-04-30T04:24:10.423Z,50.80
2019-04-30T04:26:36.088Z,51.40
2019-04-30T04:29:03.344Z,51.20
2019-04-30T04:31:30.111Z,51.50
2019-04-30T04:33:59.802Z,50.40
2019-04-30T04:36:25.605Z,50.30
2019-04-30T04:38:52.441Z,50.40
2019-04-30T04:41:19.748Z,49.20
2019-04-30T04:44:01.273Z,48.70
2019-04-30T04:46:30.594Z,47.40
2019-04-30T04:48:59.440Z,46.80
2019-04-30T04:51:34.383Z,46.80
2019-04-30T04:53:54.238Z,45.90
2019-04-30T04:56:33.952Z,44.90
2019-04-30T04:59:15.061Z,41.20
2019-04-30T05:01:42.935Z,42.10
2019-04-30T05:04:11.830Z,42.70
2019-04-30T05:07:00.137Z,39.40
2019-04-30T05:09:28.576Z,38.10
2019-04-30T05:11:55.816Z,37.30
2019-04-30T05:14:23.589Z,36.00
2019-04-30T05:16:50.484Z,36.90
2019-04-30T05:19:18.672Z,36.30
2019-04-30T05:21:45.776Z,36.40
2019-04-30T05:24:12.628Z,34.90
2019-04-30T05:26:40.576Z,34.90
2019-04-30T05:29:09.444Z,35.00
2019-04-30T05:31:36.180Z,34.90
2019-04-30T05:34:03.114Z,34.80
2019-04-30T05:36:30.101Z,34.80
2019-04-30T05:38:58.573Z,35.30
2019-04-30T05:41:25.827Z,35.60
2019-04-30T05:43:52.610Z,35.50
2019-04-30T05:46:19.742Z,35.70
2019-04-30T05:48:46.707Z,35.60
2019-04-30T05:51:13.575Z,34.60
2019-04-30T05:53:40.527Z,34.40
2019-04-30T05:56:09.238Z,35.00
2019-04-30T05:58:36.410Z,34.50
2019-04-30T06:01:03.272Z,35.60
2019-04-30T06:03:33.297Z,35.10
2019-04-30T06:05:59.672Z,33.30
2019-04-30T06:08:29.165Z,32.20
2019-04-30T06:10:59.743Z,31.80
2019-04-30T06:13:32.043Z,32.40
2019-04-30T06:16:03.388Z,32.30
2019-04-30T06:18:50.285Z,32.30
2019-04-30T06:21:21.296Z,32.80
2019-04-30T06:23:46.480Z,33.60
2019-04-30T06:26:13.385Z,32.70
2019-04-30T06:28:41.614Z,30.90
2019-04-30T06:31:09.163Z,32.90
2019-04-30T06:33:36.087Z,32.10
2019-04-30T06:36:03.040Z,28.30
2019-04-30T06:38:29.915Z,28.40
2019-04-30T06:40:58.744Z,28.50
2019-04-30T06:43:25.638Z,28.50
2019-04-30T06:45:52.602Z,25.60
2019-04-30T06:48:19.898Z,27.70
2019-04-30T06:50:49.226Z,26.50
2019-04-30T06:53:16.488Z,26.70
2019-04-30T06:55:43.425Z,28.10
2019-04-30T06:58:15.095Z,26.10
2019-04-30T07:00:40.124Z,24.30
2019-04-30T07:03:09.659Z,24.20
2019-04-30T07:05:37.066Z,26.10
2019-04-30T07:08:35.773Z,24.70
2019-04-30T07:11:11.271Z,25.70
2019-04-30T07:13:39.521Z,23.00
2019-04-30T07:16:08.326Z,24.50
2019-04-30T07:18:35.308Z,24.10
2019-04-30T07:21:02.168Z,26.60
2019-04-30T07:23:29.041Z,26.00
2019-04-30T07:25:55.903Z,22.20
2019-04-30T07:28:40.304Z,23.20
2019-04-30T07:31:07.202Z,22.70
2019-04-30T07:33:20.981Z,22.10
2019-04-30T07:35:49.836Z,22.00
2019-04-30T07:38:16.672Z,22.70
2019-04-30T07:40:56.785Z,22.60
2019-04-30T07:43:23.758Z,23.80
2019-04-30T07:45:50.644Z,21.60
2019-04-30T07:48:21.122Z,21.40
2019-04-30T07:50:46.335Z,22.00
2019-04-30T07:53:33.221Z,24.40
2019-04-30T07:56:00.181Z,22.90
2019-04-30T07:58:29.861Z,18.50
2019-04-30T08:00:56.475Z,18.40
2019-04-30T08:03:25.604Z,16.50
2019-04-30T08:05:54.923Z,17.50
2019-04-30T08:08:25.410Z,17.40
2019-04-30T08:10:51.031Z,19.90
2019-04-30T08:13:21.242Z,20.30
2019-04-30T08:15:46.772Z,20.50
2019-04-30T08:18:13.515Z,20.80
2019-04-30T08:20:40.340Z,17.30
2019-04-30T08:23:20.145Z,20.60
2019-04-30T08:25:36.466Z,17.60
2019-04-30T08:28:23.084Z,18.90
2019-04-30T08:30:51.169Z,16.40
2019-04-30T08:33:19.370Z,19.90
2019-04-30T08:35:46.252Z,16.70
2019-04-30T08:38:13.121Z,17.40
2019-04-30T08:40:53.132Z,17.80
2019-04-30T08:43:09.550Z,17.20
2019-04-30T08:45:38.452Z,13.90
2019-04-30T08:48:05.164Z,16.40
2019-04-30T08:50:32.032Z,15.70
2019-04-30T08:52:59.720Z,14.80
2019-04-30T08:55:27.227Z,16.40
2019-04-30T08:58:06.885Z,15.70
2019-04-30T09:00:22.624Z,14.60
2019-04-30T09:02:49.474Z,12.20
2019-04-30T09:05:23.784Z,12.90
2019-04-30T09:08:12.316Z,12.20
2019-04-30T09:10:39.386Z,16.80
2019-04-30T09:13:06.298Z,13.50
2019-04-30T09:15:33.287Z,12.00
2019-04-30T09:18:05.808Z,12.10
2019-04-30T09:20:29.760Z,12.30
2019-04-30T09:22:56.619Z,12.20
2019-04-30T09:25:23.470Z,11.40
2019-04-30T09:27:50.429Z,14.20
2019-04-30T09:30:18.844Z,12.70
2019-04-30T09:32:45.863Z,15.30
2019-04-30T09:35:12.587Z,12.10
2019-04-30T09:37:41.766Z,13.20
2019-04-30T09:40:17.702Z,13.40
2019-04-30T09:42:36.685Z,10.70
2019-04-30T09:45:08.673Z,11.00
2019-04-30T09:47:35.983Z,15.10
2019-04-30T09:50:04.144Z,9.70
2019-04-30T09:52:33.892Z,12.30
2019-04-30T09:55:01.121Z,9.20
2019-04-30T09:57:29.668Z,9.80
2019-04-30T09:59:56.519Z,11.40
2019-04-30T10:02:23.469Z,20.70
2019-04-30T10:04:50.778Z,22.20
2019-04-30T10:07:19.493Z,24.00
2019-04-30T10:09:46.755Z,25.00
2019-04-30T10:12:14.696Z,26.10
2019-04-30T10:14:41.647Z,26.10
2019-04-30T10:17:11.625Z,25.50
2019-04-30T10:19:39.324Z,27.10
2019-04-30T10:22:06.367Z,23.40
2019-04-30T10:24:33.988Z,24.20
2019-04-30T10:27:01.080Z,23.60
2019-04-30T10:29:28.125Z,23.70
2019-04-30T10:31:54.883Z,24.60
2019-04-30T10:34:21.708Z,23.70
2019-04-30T10:36:49.487Z,24.30
2019-04-30T10:39:16.328Z,24.90
2019-04-30T10:41:43.172Z,26.20
2019-04-30T10:44:10.113Z,23.60
2019-04-30T10:46:36.880Z,27.40
2019-04-30T10:49:03.836Z,24.70
2019-04-30T10:51:30.692Z,24.20
2019-04-30T10:53:59.150Z,23.50
2019-04-30T10:56:26.331Z,17.50
2019-04-30T10:58:53.300Z,19.40
2019-04-30T11:01:20.140Z,23.00
2019-04-30T11:03:46.892Z,24.50
2019-04-30T11:06:13.630Z,18.80
2019-04-30T11:08:40.484Z,20.90
2019-04-30T11:11:07.321Z,19.60
2019-04-30T11:13:34.164Z,20.60
2019-04-30T11:16:12.082Z,22.50
2019-04-30T11:18:29.957Z,22.10
2019-04-30T11:20:57.160Z,22.50
2019-04-30T11:23:24.808Z,23.10
2019-04-30T11:25:52.288Z,22.40
2019-04-30T11:28:20.068Z,20.00
2019-04-30T11:30:49.384Z,21.10
2019-04-30T11:33:16.694Z,17.50
2019-04-30T11:35:44.007Z,24.10
2019-04-30T11:38:10.831Z,20.70
2019-04-30T11:40:39.953Z,22.80
2019-04-30T11:43:06.450Z,21.70
2019-04-30T11:46:05.537Z,24.50
2019-04-30T11:48:32.288Z,26.40
2019-04-30T11:50:59.566Z,21.90
2019-04-30T11:53:28.828Z,24.00
2019-04-30T11:55:55.369Z,24.90
2019-04-30T11:58:22.314Z,22.80
2019-04-30T12:00:49.548Z,20.40
2019-04-30T12:03:16.735Z,21.90
2019-04-30T12:05:43.588Z,23.10
2019-04-30T12:08:12.314Z,19.30
2019-04-30T12:10:43.541Z,21.20
2019-04-30T12:13:23.436Z,22.60
2019-04-30T12:15:50.384Z,16.80
2019-04-30T12:18:17.340Z,18.10
2019-04-30T12:20:44.265Z,17.70
2019-04-30T12:23:11.916Z,19.20
2019-04-30T12:25:41.170Z,15.50
2019-04-30T12:28:09.433Z,18.50
2019-04-30T12:30:36.291Z,17.60
2019-04-30T12:33:03.176Z,16.20
2019-04-30T12:35:30.016Z,19.20
2019-04-30T12:37:58.768Z,19.10
2019-04-30T12:40:29.170Z,17.60
2019-04-30T12:42:54.280Z,19.70
2019-04-30T12:45:21.269Z,22.40
2019-04-30T12:47:50.107Z,21.80
2019-04-30T12:53:44.012Z,23.90
2019-04-30T12:56:16.724Z,22.90
2019-04-30T12:58:43.827Z,23.30
2019-04-30T13:01:10.799Z,23.50
2019-04-30T13:03:39.784Z,24.70
2019-04-30T13:06:07.241Z,26.80
2019-04-30T13:08:35.235Z,22.90
2019-04-30T13:11:03.608Z,25.10
2019-04-30T13:13:32.228Z,24.30
2019-04-30T13:16:00.007Z,25.40
2019-04-30T13:18:27.008Z,24.20
2019-04-30T13:20:53.830Z,25.20
2019-04-30T13:23:20.957Z,25.60
2019-04-30T13:25:51.474Z,26.20
2019-04-30T13:28:19.152Z,23.90
2019-04-30T13:30:46.456Z,23.70
2019-04-30T13:33:15.107Z,23.20
2019-04-30T13:35:42.125Z,22.80
2019-04-30T13:38:25.775Z,23.20
2019-04-30T13:40:54.527Z,22.30
2019-04-30T13:43:40.189Z,22.70
2019-04-30T13:46:08.593Z,22.50
2019-04-30T13:48:35.758Z,23.30
2019-04-30T13:51:02.552Z,24.30
2019-04-30T13:53:29.612Z,24.20
2019-04-30T13:55:56.353Z,21.80
2019-04-30T13:58:23.252Z,24.00
2019-04-30T14:00:50.078Z,23.20
2019-04-30T14:03:29.108Z,23.50
2019-04-30T14:05:56.079Z,22.90
2019-04-30T14:08:30.647Z,23.00
2019-04-30T14:10:59.201Z,25.60
2019-04-30T14:13:27.035Z,22.00
2019-04-30T14:15:53.980Z,23.50
2019-04-30T14:18:28.576Z,23.00
2019-04-30T14:20:49.395Z,23.30
2019-04-30T14:23:16.352Z,24.90
2019-04-30T14:25:55.376Z,24.60
2019-04-30T14:28:11.908Z,24.60
2019-04-30T14:30:39.272Z,24.60
2019-04-30T14:33:06.347Z,25.50
2019-04-30T14:35:33.303Z,24.00
2019-04-30T14:38:00.235Z,24.60
2019-04-30T14:40:29.804Z,25.10
2019-04-30T14:42:59.607Z,24.50
2019-04-30T14:45:38.423Z,23.60
2019-04-30T14:48:10.981Z,23.20
2019-04-30T14:50:38.598Z,24.70
2019-04-30T14:53:24.169Z,23.40
2019-04-30T14:56:09.535Z,23.70
2019-04-30T14:58:39.323Z,25.40
2019-04-30T15:01:09.356Z,26.20
2019-04-30T15:03:56.800Z,25.40
2019-04-30T15:06:23.659Z,26.90
2019-04-30T15:08:50.500Z,27.50
2019-04-30T15:11:19.042Z,27.60
2019-04-30T15:13:46.163Z,28.10
2019-04-30T15:16:13.020Z,28.20
2019-04-30T15:18:39.865Z,28.60
2019-04-30T15:21:06.711Z,28.30
2019-04-30T15:26:28.581Z,27.80
2019-04-30T15:28:57.484Z,29.30
2019-04-30T15:31:25.016Z,27.90
2019-04-30T15:34:02.646Z,28.60
2019-04-30T15:36:22.228Z,28.10
2019-04-30T15:41:58.149Z,29.20
2019-04-30T15:44:25.108Z,29.30
2019-04-30T15:46:51.844Z,29.10
2019-04-30T15:49:18.608Z,28.70
2019-04-30T15:51:45.448Z,28.20
2019-04-30T15:54:12.430Z,28.50
2019-04-30T15:56:40.798Z,28.50
2019-04-30T15:59:09.739Z,28.40
2019-04-30T16:01:37.283Z,28.50
2019-04-30T16:04:04.395Z,28.00
2019-04-30T16:06:31.296Z,27.80
2019-04-30T16:12:13.315Z,28.70
2019-04-30T16:14:42.034Z,29.80
2019-04-30T16:17:13.268Z,29.40
2019-04-30T16:19:40.019Z,29.60
2019-04-30T16:22:07.101Z,29.90
2019-04-30T16:24:34.075Z,31.50
2019-04-30T16:27:00.911Z,30.20
2019-04-30T16:29:27.763Z,30.70
2019-04-30T16:31:54.503Z,28.90
2019-04-30T16:34:21.377Z,29.30
2019-04-30T16:36:49.219Z,29.20
2019-04-30T16:39:18.557Z,30.20
2019-04-30T16:41:45.538Z,31.60
2019-04-30T16:44:12.403Z,32.50
2019-04-30T16:46:39.573Z,32.70
2019-04-30T16:49:06.459Z,32.70
2019-04-30T16:51:33.233Z,33.20
2019-04-30T16:54:00.067Z,33.30
2019-04-30T16:56:28.628Z,34.60
2019-04-30T17:01:57.504Z,32.80
2019-04-30T17:04:31.171Z,34.40
2019-04-30T17:07:02.459Z,34.60
2019-04-30T17:09:50.906Z,35.40
2019-04-30T17:12:19.760Z,35.30
2019-04-30T17:14:49.251Z,35.70
2019-04-30T17:17:16.543Z,35.20
2019-04-30T17:19:43.459Z,36.50
2019-04-30T17:22:10.735Z,36.20
2019-04-30T17:24:39.390Z,36.30
2019-04-30T17:27:16.491Z,36.70
2019-04-30T17:29:35.175Z,37.00
2019-04-30T17:32:02.043Z,36.80
2019-04-30T17:34:30.839Z,37.00
2019-04-30T17:36:59.126Z,37.10
2019-04-30T17:39:26.419Z,37.60
2019-04-30T17:41:53.399Z,37.10
2019-04-30T17:44:20.370Z,37.90
2019-04-30T17:46:49.729Z,37.40
2019-04-30T17:49:18.836Z,37.40
2019-04-30T17:51:45.817Z,37.40
2019-04-30T17:54:12.991Z,37.10
2019-04-30T17:56:41.025Z,37.20
2019-04-30T17:59:08.083Z,38.70
2019-04-30T18:01:35.328Z,37.60
2019-04-30T18:04:02.181Z,37.60
2019-04-30T18:06:29.033Z,37.60
2019-04-30T18:08:55.969Z,37.90
2019-04-30T18:11:22.830Z,37.90
2019-04-30T18:13:50.715Z,38.50
2019-04-30T18:16:18.746Z,38.90
2019-04-30T18:21:41.096Z,39.50
2019-04-30T18:27:06.475Z,41.20
2019-04-30T18:29:33.308Z,41.80
2019-04-30T18:32:00.304Z,42.70
2019-04-30T18:34:29.138Z,43.60
2019-04-30T18:36:55.820Z,44.80
2019-04-30T18:39:22.672Z,44.80
2019-04-30T18:41:49.651Z,44.10
2019-04-30T18:44:16.525Z,44.60
2019-04-30T18:46:43.363Z,45.70
2019-04-30T18:49:10.399Z,45.60
2019-04-30T18:51:42.125Z,45.50
2019-04-30T18:54:05.715Z,46.50
2019-04-30T18:56:32.490Z,47.50
2019-04-30T18:58:59.337Z,48.40
2019-04-30T19:01:26.291Z,49.00
2019-04-30T19:03:53.252Z,49.50
2019-04-30T19:09:13.172Z,50.10
2019-04-30T19:11:43.518Z,49.70
2019-04-30T19:14:29.383Z,50.60
2019-04-30T19:17:14.863Z,50.80
2019-04-30T19:19:55.504Z,51.10
2019-04-30T19:22:22.419Z,51.50
2019-04-30T19:24:58.215Z,52.00
2019-04-30T19:27:18.654Z,52.70
2019-04-30T19:29:45.752Z,52.80
2019-04-30T19:32:12.732Z,53.10
2019-04-30T19:34:39.615Z,53.00
2019-04-30T19:37:08.559Z,53.00
2019-04-30T19:39:35.224Z,53.30
2019-04-30T19:42:02.082Z,53.10
2019-04-30T19:44:29.332Z,53.20
2019-04-30T19:46:58.161Z,53.00
2019-04-30T19:49:25.224Z,53.30
2019-04-30T19:52:05.602Z,53.30
2019-04-30T19:54:21.094Z,53.60
2019-04-30T19:56:50.076Z,53.00
2019-04-30T19:59:31.725Z,52.90
2019-04-30T20:02:04.358Z,54.70
2019-04-30T20:04:56.049Z,54.50
2019-04-30T20:07:29.087Z,54.40
2019-04-30T20:10:04.212Z,55.10
2019-04-30T20:12:31.827Z,53.60
2019-04-30T20:15:00.470Z,52.80
2019-04-30T20:17:29.489Z,53.60
2019-04-30T20:19:56.124Z,52.80
2019-04-30T20:22:23.430Z,53.30
2019-04-30T20:24:51.389Z,53.10
2019-04-30T20:27:18.981Z,53.70
2019-04-30T20:29:46.075Z,52.70
2019-04-30T20:32:12.920Z,52.60
2019-04-30T20:34:39.795Z,52.70
2019-04-30T20:37:08.544Z,52.90
2019-04-30T20:39:39.341Z,52.80
2019-04-30T20:42:05.989Z,53.00
2019-04-30T20:44:32.864Z,53.40
2019-04-30T20:47:00.936Z,54.10
2019-04-30T20:49:29.217Z,53.50
2019-04-30T20:51:56.437Z,54.00
2019-04-30T20:54:23.263Z,53.80
2019-04-30T20:56:51.072Z,54.10
2019-04-30T20:59:19.006Z,54.10
2019-04-30T21:01:46.383Z,59.60
2019-04-30T21:04:13.212Z,55.70
2019-04-30T21:06:39.996Z,55.60
2019-04-30T21:09:06.855Z,55.40
2019-04-30T21:11:34.804Z,55.60
2019-04-30T21:14:01.637Z,56.10
2019-04-30T21:16:28.398Z,55.80
2019-04-30T21:18:55.332Z,56.50
2019-04-30T21:21:22.197Z,56.40
2019-04-30T21:23:49.225Z,57.00
2019-04-30T21:26:38.124Z,57.40
2019-04-30T21:29:11.082Z,58.10
2019-04-30T21:31:35.411Z,58.90
2019-04-30T21:34:04.641Z,58.80
2019-04-30T21:36:31.577Z,58.30
2019-04-30T21:38:59.045Z,58.60
2019-04-30T21:41:26.167Z,58.60
2019-04-30T21:43:53.024Z,59.20
2019-04-30T21:46:19.857Z,59.30
2019-04-30T21:48:48.734Z,59.70
2019-04-30T21:51:15.482Z,59.80
2019-04-30T21:53:55.692Z,59.30
2019-04-30T21:56:22.516Z,59.70
2019-04-30T21:58:49.371Z,59.00
2019-04-30T22:01:18.048Z,59.10
2019-04-30T22:03:47.692Z,59.50
2019-04-30T22:06:14.547Z,59.30
2019-04-30T22:08:41.479Z,60.00
2019-04-30T22:11:09.779Z,59.40
2019-04-30T22:13:36.730Z,59.40
2019-04-30T22:16:03.495Z,59.70
2019-04-30T22:18:30.329Z,59.90
2019-04-30T22:20:57.604Z,59.70
2019-04-30T22:23:24.536Z,59.70
2019-04-30T22:25:52.404Z,59.90
2019-04-30T22:28:21.068Z,60.60
2019-04-30T22:30:48.386Z,62.90
2019-04-30T22:33:16.718Z,61.00
2019-04-30T22:41:14.114Z,61.60
2019-04-30T22:43:40.980Z,62.50
2019-04-30T22:46:15.768Z,61.90
2019-04-30T22:48:42.637Z,62.10
2019-04-30T22:51:09.410Z,62.10
2019-04-30T22:53:36.628Z,62.50
2019-04-30T22:56:04.593Z,62.40
2019-04-30T22:58:31.645Z,62.20
2019-04-30T23:04:04.226Z,61.90
2019-04-30T23:06:31.267Z,62.90
2019-04-30T23:08:58.144Z,62.00
2019-04-30T23:11:25.182Z,61.90
2019-04-30T23:13:52.268Z,61.80
2019-04-30T23:16:19.225Z,61.80
2019-04-30T23:18:46.203Z,61.70
2019-04-30T23:21:13.056Z,62.20
2019-04-30T23:23:39.924Z,62.60
2019-04-30T23:26:06.885Z,62.50
2019-04-30T23:28:34.959Z,63.20
2019-04-30T23:31:24.920Z,64.10
2019-04-30T23:33:52.151Z,64.30
2019-04-30T23:36:19.099Z,64.40
2019-04-30T23:38:46.888Z,63.80
2019-04-30T23:41:13.721Z,63.60
2019-04-30T23:43:40.676Z,63.50
2019-04-30T23:46:07.583Z,63.80
2019-04-30T23:48:35.039Z,63.40
2019-04-30T23:51:01.888Z,63.50
2019-04-30T23:53:28.866Z,63.40
2019-04-30T23:55:55.785Z,63.80
2019-04-30T23:58:22.615Z,63.60
